createdAt,value
2023-02-23T00:00:29.844Z,2.08
2023-02-23T00:02:58.944Z,1.20
2023-02-23T00:05:26.547Z,1.20
2023-02-23T00:07:54.178Z,1.52
2023-02-23T00:10:21.346Z,1.88
2023-02-23T00:12:49.466Z,1.60
2023-02-23T00:15:15.794Z,1.67
2023-02-23T00:17:42.136Z,1.35
2023-02-23T00:20:11.597Z,1.70
2023-02-23T00:22:39.875Z,1.40
2023-02-23T00:25:09.087Z,1.15
2023-02-23T00:27:36.691Z,1.02
2023-02-23T00:30:03.296Z,0.70
2023-02-23T00:32:30.034Z,1.58
2023-02-23T00:34:58.695Z,1.90
2023-02-23T00:37:25.044Z,1.30
2023-02-23T00:39:52.829Z,1.02
2023-02-23T00:42:19.454Z,1.40
2023-02-23T00:44:47.612Z,1.13
2023-02-23T00:47:14.000Z,1.20
2023-02-23T00:49:40.314Z,1.10
2023-02-23T00:52:06.597Z,1.10
2023-02-23T00:54:32.955Z,0.77
2023-02-23T00:56:59.288Z,0.60
2023-02-23T00:59:25.626Z,0.77
2023-02-23T01:01:52.587Z,1.10
2023-02-23T01:04:18.947Z,0.90
2023-02-23T01:06:46.277Z,0.82
2023-02-23T01:09:14.487Z,0.70
2023-02-23T01:11:41.551Z,0.60
2023-02-23T01:14:08.557Z,0.88
2023-02-23T01:16:35.000Z,0.50
2023-02-23T01:19:03.468Z,0.70
2023-02-23T01:21:31.414Z,0.70
2023-02-23T01:23:58.076Z,0.55
2023-02-23T01:26:25.738Z,0.90
2023-02-23T01:28:56.498Z,0.57
2023-02-23T01:31:23.885Z,0.90
2023-02-23T01:33:54.456Z,0.60
2023-02-23T01:36:20.749Z,0.50
2023-02-23T01:38:47.355Z,0.38
2023-02-23T01:41:14.653Z,1.63
2023-02-23T01:43:55.552Z,2.00
2023-02-23T01:46:22.077Z,2.53
2023-02-23T01:48:48.705Z,2.78
2023-02-23T01:51:21.115Z,2.10
2023-02-23T01:53:51.398Z,2.20
2023-02-23T01:56:21.516Z,3.97
2023-02-23T01:58:51.833Z,3.90
2023-02-23T02:01:18.826Z,2.92
2023-02-23T02:03:48.380Z,2.75
2023-02-23T02:06:15.862Z,3.25
2023-02-23T02:08:46.288Z,3.42
2023-02-23T02:11:34.013Z,3.13
2023-02-23T02:14:02.627Z,3.40
2023-02-23T02:16:42.529Z,2.90
2023-02-23T02:19:18.745Z,2.72
2023-02-23T02:21:46.893Z,3.10
2023-02-23T02:24:13.228Z,2.85
2023-02-23T02:26:58.462Z,2.88
2023-02-23T02:29:32.881Z,2.67
2023-02-23T02:32:02.681Z,2.75
2023-02-23T02:34:29.030Z,2.40
2023-02-23T02:37:10.210Z,2.33
2023-02-23T02:39:36.724Z,2.25
2023-02-23T02:42:29.416Z,2.20
2023-02-23T02:45:20.327Z,3.78
2023-02-23T02:47:50.462Z,2.78
2023-02-23T02:50:31.351Z,2.72
2023-02-23T02:53:08.538Z,3.58
2023-02-23T02:55:37.642Z,2.88
2023-02-23T02:58:07.814Z,2.83
2023-02-23T03:01:00.818Z,2.50
2023-02-23T03:03:50.853Z,4.25
2023-02-23T03:06:37.232Z,5.15
2023-02-23T03:09:27.593Z,5.30
2023-02-23T03:12:24.966Z,3.85
2023-02-23T03:15:19.518Z,3.60
2023-02-23T03:18:05.861Z,3.53
2023-02-23T03:20:50.814Z,3.90
2023-02-23T03:23:35.756Z,4.00
2023-02-23T03:26:20.910Z,4.05
2023-02-23T03:29:26.331Z,3.30
2023-02-23T03:32:18.704Z,3.58
2023-02-23T03:35:16.185Z,3.40
2023-02-23T03:38:04.598Z,3.88
2023-02-23T03:40:54.136Z,4.70
2023-02-23T03:43:43.484Z,4.40
2023-02-23T03:46:30.076Z,4.80
2023-02-23T03:49:16.534Z,4.13
2023-02-23T03:52:02.102Z,3.70
2023-02-23T03:54:51.997Z,3.63
2023-02-23T03:57:39.274Z,3.22
2023-02-23T04:00:26.553Z,3.70
2023-02-23T04:03:12.463Z,4.30
2023-02-23T04:05:58.794Z,5.32
2023-02-23T04:08:44.724Z,5.05
2023-02-23T04:11:59.479Z,4.80
2023-02-23T04:14:28.784Z,4.97
2023-02-23T04:16:56.167Z,5.30
2023-02-23T04:19:22.469Z,5.78
2023-02-23T04:21:48.864Z,5.85
2023-02-23T04:24:15.555Z,5.60
2023-02-23T04:26:42.309Z,4.97
2023-02-23T04:29:08.725Z,4.82
2023-02-23T04:31:35.154Z,4.20
2023-02-23T04:34:01.613Z,4.13
2023-02-23T04:36:28.345Z,3.78
2023-02-23T04:38:54.710Z,3.58
2023-02-23T04:41:21.360Z,4.28
2023-02-23T04:43:47.661Z,4.00
2023-02-23T04:46:14.184Z,3.10
2023-02-23T04:48:40.590Z,2.92
2023-02-23T04:51:07.035Z,2.78
2023-02-23T04:53:33.338Z,3.03
2023-02-23T04:55:59.726Z,3.33
2023-02-23T04:58:26.423Z,3.33
2023-02-23T05:00:52.736Z,4.07
2023-02-23T05:03:19.099Z,3.95
2023-02-23T05:05:45.686Z,3.95
2023-02-23T05:08:12.006Z,4.07
2023-02-23T05:10:40.254Z,5.28
2023-02-23T05:13:06.820Z,4.22
2023-02-23T05:15:33.232Z,4.55
2023-02-23T05:17:59.580Z,4.90
2023-02-23T05:20:26.054Z,4.72
2023-02-23T05:22:52.331Z,3.95
2023-02-23T05:25:18.733Z,3.95
2023-02-23T05:27:45.017Z,3.17
2023-02-23T05:30:11.525Z,2.83
2023-02-23T05:32:37.876Z,2.15
2023-02-23T05:35:04.409Z,2.95
2023-02-23T05:37:30.843Z,2.22
2023-02-23T05:39:57.219Z,2.60
2023-02-23T05:42:23.572Z,2.47
2023-02-23T05:44:50.009Z,3.15
2023-02-23T05:47:16.310Z,2.92
2023-02-23T05:49:43.038Z,3.17
2023-02-23T05:52:09.374Z,2.55
2023-02-23T05:54:35.666Z,2.00
2023-02-23T05:57:02.030Z,2.05
2023-02-23T05:59:28.416Z,1.90
2023-02-23T06:01:54.743Z,1.40
2023-02-23T06:04:21.822Z,1.88
2023-02-23T06:06:48.171Z,1.60
2023-02-23T06:09:14.581Z,2.28
2023-02-23T06:11:40.954Z,2.47
2023-02-23T06:14:07.244Z,2.58
2023-02-23T06:16:33.711Z,1.77
2023-02-23T06:19:00.070Z,1.92
2023-02-23T06:21:26.415Z,1.88
2023-02-23T06:23:53.558Z,1.70
2023-02-23T06:26:20.597Z,2.50
2023-02-23T06:28:46.966Z,2.60
2023-02-23T06:31:13.318Z,2.95
2023-02-23T06:33:39.750Z,3.20
2023-02-23T06:36:06.215Z,2.50
2023-02-23T06:38:32.537Z,3.33
2023-02-23T06:44:20.695Z,4.22
2023-02-23T06:46:47.056Z,3.53
2023-02-23T06:49:16.172Z,2.60
2023-02-23T06:51:42.917Z,2.30
2023-02-23T06:54:09.248Z,2.85
2023-02-23T06:56:35.681Z,4.07
2023-02-23T06:59:02.007Z,5.28
2023-02-23T07:01:28.425Z,3.55
2023-02-23T07:03:54.891Z,3.33
2023-02-23T07:06:21.389Z,2.55
2023-02-23T07:08:47.851Z,2.33
2023-02-23T07:11:15.704Z,2.28
2023-02-23T07:13:45.132Z,2.13
2023-02-23T07:16:12.134Z,1.90
2023-02-23T07:18:38.534Z,1.45
2023-02-23T07:21:04.967Z,0.98
2023-02-23T07:23:31.351Z,0.85
2023-02-23T07:25:58.062Z,0.80
2023-02-23T07:28:25.818Z,0.80
2023-02-23T07:30:55.030Z,0.70
2023-02-23T07:33:21.409Z,1.38
2023-02-23T07:35:49.384Z,1.35
2023-02-23T07:38:15.834Z,0.90
2023-02-23T07:40:42.120Z,0.70
2023-02-23T07:43:09.977Z,0.70
2023-02-23T07:45:36.557Z,1.20
2023-02-23T07:48:02.921Z,2.08
2023-02-23T07:50:29.268Z,1.40
2023-02-23T07:52:55.729Z,1.25
2023-02-23T07:55:22.358Z,0.88
2023-02-23T07:57:48.825Z,0.55
2023-02-23T08:00:15.408Z,0.80
2023-02-23T08:02:41.787Z,1.30
2023-02-23T08:05:08.280Z,1.20
2023-02-23T08:07:34.612Z,1.20
2023-02-23T08:10:00.974Z,1.40
2023-02-23T08:12:27.484Z,1.58
2023-02-23T08:14:54.267Z,1.13
2023-02-23T08:17:20.633Z,1.13
2023-02-23T08:19:47.011Z,2.20
2023-02-23T08:22:13.344Z,2.30
2023-02-23T08:24:39.780Z,2.03
2023-02-23T08:27:06.244Z,2.63
2023-02-23T08:29:33.410Z,2.10
2023-02-23T08:32:01.548Z,1.85
2023-02-23T08:34:28.347Z,2.50
2023-02-23T08:36:55.032Z,2.05
2023-02-23T08:39:21.640Z,1.70
2023-02-23T08:41:47.957Z,1.83
2023-02-23T08:44:14.317Z,1.65
2023-02-23T08:46:40.592Z,1.20
2023-02-23T08:49:06.968Z,0.98
2023-02-23T08:51:34.905Z,1.10
2023-02-23T08:54:01.668Z,1.20
2023-02-23T08:56:28.378Z,0.80
2023-02-23T08:58:54.805Z,0.98
2023-02-23T09:01:22.222Z,1.10
2023-02-23T09:03:48.767Z,0.90
2023-02-23T09:06:17.470Z,0.80
2023-02-23T09:08:43.933Z,0.80
2023-02-23T09:11:10.377Z,1.38
2023-02-23T09:13:36.710Z,1.08
2023-02-23T09:16:03.976Z,0.70
2023-02-23T09:18:30.677Z,1.92
2023-02-23T09:20:57.020Z,1.30
2023-02-23T09:23:24.280Z,1.00
2023-02-23T09:25:50.581Z,1.10
2023-02-23T09:28:18.246Z,1.20
2023-02-23T09:30:45.230Z,1.35
2023-02-23T09:33:11.589Z,1.13
2023-02-23T09:35:37.897Z,1.00
2023-02-23T09:38:06.422Z,1.35
2023-02-23T09:40:53.367Z,3.17
2023-02-23T09:43:22.482Z,3.10
2023-02-23T09:45:51.529Z,2.83
2023-02-23T09:48:19.581Z,4.53
2023-02-23T09:50:51.196Z,4.47
2023-02-23T09:53:20.402Z,3.75
2023-02-23T09:55:47.652Z,2.85
2023-02-23T09:58:20.931Z,3.00
2023-02-23T10:00:51.626Z,2.90
2023-02-23T10:03:28.180Z,2.03
2023-02-23T10:06:01.164Z,1.50
2023-02-23T10:08:31.633Z,1.65
2023-02-23T10:11:19.433Z,3.55
2023-02-23T10:13:49.047Z,2.90
2023-02-23T10:16:15.407Z,3.00
2023-02-23T10:18:54.072Z,2.58
2023-02-23T10:21:20.797Z,2.35
2023-02-23T10:24:17.270Z,2.05
2023-02-23T10:26:47.262Z,3.10
2023-02-23T10:29:18.183Z,3.33
2023-02-23T10:31:48.121Z,2.97
2023-02-23T10:34:15.936Z,2.90
2023-02-23T10:36:51.146Z,4.07
2023-02-23T10:39:17.522Z,3.92
2023-02-23T10:41:44.336Z,4.57
2023-02-23T10:44:17.501Z,4.90
2023-02-23T10:46:44.055Z,4.75
2023-02-23T10:49:18.978Z,4.97
2023-02-23T10:51:45.511Z,5.15
2023-02-23T10:54:30.515Z,4.68
2023-02-23T10:56:56.809Z,3.90
2023-02-23T10:59:23.170Z,3.20
2023-02-23T11:02:02.281Z,2.60
2023-02-23T11:04:34.784Z,3.05
2023-02-23T11:07:07.589Z,3.10
2023-02-23T11:09:45.863Z,4.00
2023-02-23T11:12:13.711Z,3.40
2023-02-23T11:14:40.806Z,4.13
2023-02-23T11:17:24.261Z,5.28
2023-02-23T11:19:50.788Z,4.95
2023-02-23T11:22:23.280Z,4.18
2023-02-23T11:24:50.026Z,5.88
2023-02-23T11:27:23.904Z,6.22
2023-02-23T11:29:52.421Z,9.93
2023-02-23T11:32:31.026Z,8.18
2023-02-23T11:35:16.078Z,7.00
2023-02-23T11:37:42.514Z,7.68
2023-02-23T11:40:23.961Z,6.97
2023-02-23T11:42:53.406Z,8.65
2023-02-23T11:45:20.909Z,7.50
2023-02-23T11:47:49.760Z,7.70
2023-02-23T11:50:25.418Z,5.22
2023-02-23T11:52:58.107Z,4.88
2023-02-23T11:55:25.584Z,6.35
2023-02-23T11:57:53.197Z,5.57
2023-02-23T12:00:24.018Z,5.25
2023-02-23T12:02:58.590Z,3.83
2023-02-23T12:05:26.587Z,3.97
2023-02-23T12:08:11.076Z,2.90
2023-02-23T12:10:42.779Z,5.78
2023-02-23T12:13:27.804Z,3.70
2023-02-23T12:16:23.488Z,2.58
2023-02-23T12:18:59.456Z,3.28
2023-02-23T12:21:38.245Z,4.13
2023-02-23T12:24:25.780Z,3.92
2023-02-23T12:26:58.210Z,5.47
2023-02-23T12:29:30.310Z,4.03
2023-02-23T12:31:58.932Z,3.50
2023-02-23T12:34:32.144Z,5.43
2023-02-23T12:37:12.828Z,4.38
2023-02-23T12:39:41.658Z,3.97
2023-02-23T12:42:14.051Z,5.28
2023-02-23T12:44:40.398Z,6.05
2023-02-23T12:47:25.727Z,6.03
2023-02-23T12:50:00.367Z,4.78
2023-02-23T12:52:29.616Z,4.63
2023-02-23T12:54:55.929Z,3.10
2023-02-23T12:57:42.565Z,4.78
2023-02-23T13:00:23.743Z,3.67
2023-02-23T13:02:54.359Z,3.30
2023-02-23T13:05:28.503Z,3.55
2023-02-23T13:07:59.220Z,2.78
2023-02-23T13:10:52.825Z,4.38
2023-02-23T13:13:25.105Z,3.30
2023-02-23T13:16:05.502Z,3.65
2023-02-23T13:18:38.795Z,2.70
2023-02-23T13:21:12.933Z,3.03
2023-02-23T13:23:44.190Z,2.42
2023-02-23T13:26:16.200Z,2.85
2023-02-23T13:28:42.467Z,2.90
2023-02-23T13:31:38.125Z,3.42
2023-02-23T13:34:06.298Z,2.85
2023-02-23T13:36:34.202Z,4.60
2023-02-23T13:39:19.295Z,4.07
2023-02-23T13:41:51.978Z,3.45
2023-02-23T13:44:29.688Z,3.20
2023-02-23T13:46:59.079Z,2.80
2023-02-23T13:49:42.410Z,3.10
2023-02-23T13:52:20.252Z,5.70
2023-02-23T13:54:56.453Z,5.20
2023-02-23T13:57:23.736Z,4.07
2023-02-23T13:59:50.680Z,4.22
2023-02-23T14:02:28.838Z,4.53
2023-02-23T14:05:02.328Z,4.22
2023-02-23T14:07:30.946Z,4.00
2023-02-23T14:09:59.502Z,4.10
2023-02-23T14:12:35.045Z,4.20
2023-02-23T14:15:20.288Z,4.63
2023-02-23T14:18:03.255Z,4.85
2023-02-23T14:20:38.850Z,4.40
2023-02-23T14:23:20.556Z,5.65
2023-02-23T14:25:47.379Z,5.07
2023-02-23T14:28:31.076Z,4.93
2023-02-23T14:31:08.128Z,4.72
2023-02-23T14:33:42.486Z,5.20
2023-02-23T14:36:24.023Z,3.53
2023-02-23T14:38:56.640Z,4.63
2023-02-23T14:41:24.085Z,4.18
2023-02-23T14:43:54.987Z,4.72
2023-02-23T14:46:23.477Z,4.72
2023-02-23T14:49:00.616Z,5.22
2023-02-23T14:51:42.019Z,6.15
2023-02-23T14:54:15.568Z,5.10
2023-02-23T14:56:46.808Z,5.20
2023-02-23T14:59:21.122Z,5.30
2023-02-23T15:01:47.843Z,5.60
2023-02-23T15:04:16.970Z,4.85
2023-02-23T15:06:46.887Z,4.20
2023-02-23T15:09:16.984Z,5.90
2023-02-23T15:11:45.684Z,7.22
2023-02-23T15:14:26.937Z,5.82
2023-02-23T15:19:31.726Z,5.93
2023-02-23T15:21:59.427Z,6.03
2023-02-23T15:24:27.819Z,7.88
2023-02-23T15:26:55.343Z,6.05
2023-02-23T15:29:26.100Z,5.57
2023-02-23T15:31:55.388Z,5.45
2023-02-23T15:34:26.423Z,8.60
2023-02-23T15:37:23.749Z,8.40
2023-02-23T15:39:53.310Z,8.73
2023-02-23T15:42:24.549Z,8.13
2023-02-23T15:44:59.894Z,8.65
2023-02-23T15:47:28.747Z,9.75
2023-02-23T15:50:05.683Z,7.30
2023-02-23T15:52:35.068Z,8.43
2023-02-23T15:55:04.897Z,8.75
2023-02-23T15:57:32.750Z,12.38
2023-02-23T16:00:00.549Z,8.38
2023-02-23T16:02:27.073Z,6.13
2023-02-23T16:04:53.965Z,7.15
2023-02-23T16:07:23.134Z,6.10
2023-02-23T16:09:52.728Z,6.57
2023-02-23T16:12:23.755Z,6.25
2023-02-23T16:14:55.134Z,8.32
2023-02-23T16:17:25.468Z,8.95
2023-02-23T16:19:52.592Z,6.55
2023-02-23T16:22:21.800Z,5.53
2023-02-23T16:24:56.642Z,5.95
2023-02-23T16:27:24.435Z,5.47
2023-02-23T16:29:56.022Z,3.97
2023-02-23T16:32:25.360Z,4.72
2023-02-23T16:34:56.223Z,3.92
2023-02-23T16:37:25.253Z,3.40
2023-02-23T16:39:52.257Z,3.35
2023-02-23T16:42:30.294Z,4.90
2023-02-23T16:44:57.153Z,4.05
2023-02-23T16:47:23.477Z,2.88
2023-02-23T16:49:52.956Z,3.92
2023-02-23T16:52:22.498Z,3.47
2023-02-23T16:54:53.263Z,3.70
2023-02-23T16:57:23.660Z,3.17
2023-02-23T16:59:50.831Z,2.55
2023-02-23T17:02:18.461Z,4.07
2023-02-23T17:04:49.028Z,4.10
2023-02-23T17:07:16.364Z,3.72
2023-02-23T17:09:43.147Z,4.72
2023-02-23T17:12:10.782Z,6.18
2023-02-23T17:14:37.444Z,4.45
2023-02-23T17:17:03.771Z,5.90
2023-02-23T17:19:30.240Z,6.13
2023-02-23T17:21:56.621Z,4.97
2023-02-23T17:24:26.015Z,6.93
2023-02-23T17:26:52.886Z,6.72
2023-02-23T17:29:19.301Z,6.70
2023-02-23T17:31:45.905Z,6.55
2023-02-23T17:34:12.583Z,5.68
2023-02-23T17:36:38.942Z,6.03
2023-02-23T17:39:06.471Z,4.10
2023-02-23T17:41:34.280Z,4.72
2023-02-23T17:44:02.674Z,3.92
2023-02-23T17:46:28.976Z,4.07
2023-02-23T17:48:56.393Z,4.32
2023-02-23T17:51:23.214Z,8.00
2023-02-23T17:53:49.725Z,7.50
2023-02-23T17:56:17.737Z,7.35
2023-02-23T17:58:45.689Z,5.85
2023-02-23T18:01:12.101Z,4.88
2023-02-23T18:03:38.638Z,3.78
2023-02-23T18:06:06.492Z,3.47
2023-02-23T18:08:33.043Z,5.40
2023-02-23T18:10:59.331Z,8.18
2023-02-23T18:13:26.918Z,6.05
2023-02-23T18:15:54.982Z,6.28
2023-02-23T18:18:22.581Z,6.88
2023-02-23T18:20:54.023Z,5.65
2023-02-23T18:23:21.047Z,6.05
2023-02-23T18:25:47.883Z,5.50
2023-02-23T18:28:15.165Z,5.53
2023-02-23T18:30:42.056Z,5.35
2023-02-23T18:33:09.125Z,6.03
2023-02-23T18:35:40.071Z,6.00
2023-02-23T18:38:09.629Z,5.18
2023-02-23T18:40:36.849Z,6.90
2023-02-23T18:43:03.677Z,5.57
2023-02-23T18:45:30.215Z,6.50
2023-02-23T18:47:56.712Z,6.63
2023-02-23T18:50:26.347Z,8.48
2023-02-23T18:52:54.233Z,6.60
2023-02-23T18:55:22.234Z,6.90
2023-02-23T18:57:52.840Z,6.38
2023-02-23T19:00:19.824Z,9.68
2023-02-23T19:02:49.078Z,7.03
2023-02-23T19:05:16.268Z,5.50
2023-02-23T19:07:42.658Z,6.20
2023-02-23T19:10:12.188Z,6.75
2023-02-23T19:12:39.001Z,6.50
2023-02-23T19:15:07.160Z,6.28
2023-02-23T19:17:35.750Z,4.55
2023-02-23T19:20:02.183Z,4.13
2023-02-23T19:22:29.118Z,6.18
2023-02-23T19:24:55.777Z,4.40
2023-02-23T19:27:22.449Z,5.07
2023-02-23T19:29:48.858Z,4.00
2023-02-23T19:32:18.252Z,4.97
2023-02-23T19:34:46.413Z,5.47
2023-02-23T19:37:12.820Z,4.82
2023-02-23T19:39:39.512Z,4.80
2023-02-23T19:42:05.960Z,7.00
2023-02-23T19:44:32.337Z,5.50
2023-02-23T19:46:58.751Z,3.88
2023-02-23T19:49:25.724Z,5.72
2023-02-23T19:51:53.181Z,6.88
2023-02-23T19:54:20.530Z,6.47
2023-02-23T19:56:47.133Z,5.00
2023-02-23T19:59:13.706Z,4.00
2023-02-23T20:01:40.131Z,6.10
2023-02-23T20:04:08.252Z,6.63
2023-02-23T20:06:38.484Z,6.38
2023-02-23T20:09:05.392Z,7.75
2023-02-23T20:11:32.874Z,6.38
2023-02-23T20:14:00.460Z,6.45
2023-02-23T20:16:29.496Z,6.88
2023-02-23T20:18:59.176Z,7.53
2023-02-23T20:21:26.771Z,7.00
2023-02-23T20:23:54.066Z,5.85
2023-02-23T20:26:22.706Z,6.03
2023-02-23T20:28:51.971Z,4.38
2023-02-23T20:31:21.006Z,4.60
2023-02-23T20:33:50.432Z,4.15
2023-02-23T20:36:17.500Z,5.50
2023-02-23T20:38:43.888Z,4.93
2023-02-23T20:41:10.623Z,4.18
2023-02-23T20:43:37.543Z,6.15
2023-02-23T20:46:04.217Z,7.25
2023-02-23T20:48:31.941Z,6.38
2023-02-23T20:50:58.561Z,4.90
2023-02-23T20:53:25.527Z,4.68
2023-02-23T20:55:52.565Z,6.85
2023-02-23T20:58:25.528Z,5.35
2023-02-23T21:00:54.681Z,6.47
2023-02-23T21:03:21.673Z,5.82
2023-02-23T21:05:51.589Z,4.68
2023-02-23T21:08:18.333Z,4.18
2023-02-23T21:10:44.865Z,4.10
2023-02-23T21:13:11.356Z,3.90
2023-02-23T21:15:38.095Z,4.15
2023-02-23T21:18:04.915Z,4.18
2023-02-23T21:20:31.399Z,5.90
2023-02-23T21:22:57.786Z,7.25
2023-02-23T21:25:25.180Z,5.70
2023-02-23T21:27:51.826Z,6.05
2023-02-23T21:30:21.817Z,6.70
2023-02-23T21:32:48.909Z,6.55
2023-02-23T21:35:15.507Z,6.72
2023-02-23T21:37:42.666Z,5.00
2023-02-23T21:40:11.899Z,6.53
2023-02-23T21:42:38.945Z,6.40
2023-02-23T21:45:05.834Z,6.32
2023-02-23T21:47:34.094Z,6.05
2023-02-23T21:50:00.464Z,8.23
2023-02-23T21:52:26.953Z,8.07
2023-02-23T21:54:53.341Z,7.45
2023-02-23T21:57:22.646Z,7.90
2023-02-23T21:59:49.452Z,7.25
2023-02-23T22:02:15.828Z,8.10
2023-02-23T22:04:42.210Z,8.20
2023-02-23T22:07:08.747Z,8.95
2023-02-23T22:09:35.300Z,9.32
2023-02-23T22:12:01.610Z,8.95
2023-02-23T22:14:28.019Z,7.07
2023-02-23T22:16:54.543Z,9.55
2023-02-23T22:19:21.228Z,9.13
2023-02-23T22:21:48.440Z,7.15
2023-02-23T22:24:15.283Z,8.88
2023-02-23T22:26:46.709Z,6.95
2023-02-23T22:29:13.021Z,8.32
2023-02-23T22:31:39.837Z,7.18
2023-02-23T22:34:07.284Z,7.53
2023-02-23T22:36:34.278Z,7.22
2023-02-23T22:39:00.883Z,8.30
2023-02-23T22:41:30.530Z,11.48
2023-02-23T22:43:57.230Z,8.02
2023-02-23T22:46:23.906Z,10.30
2023-02-23T22:48:50.386Z,9.60
2023-02-23T22:51:17.884Z,6.18
2023-02-23T22:53:44.572Z,8.95
2023-02-23T22:56:10.986Z,9.10
2023-02-23T22:58:37.596Z,7.65
2023-02-23T23:01:05.731Z,10.20
2023-02-23T23:03:36.767Z,7.60
2023-02-23T23:06:04.625Z,5.78
2023-02-23T23:08:39.880Z,7.70
2023-02-23T23:11:10.434Z,5.50
2023-02-23T23:13:44.546Z,6.30
2023-02-23T23:16:29.131Z,6.38
2023-02-23T23:19:02.878Z,5.32
2023-02-23T23:23:57.254Z,5.25
2023-02-23T23:26:25.639Z,7.53
2023-02-23T23:28:53.044Z,5.30
2023-02-23T23:31:22.635Z,3.72
2023-02-23T23:33:50.053Z,5.28
2023-02-23T23:36:17.667Z,3.72
2023-02-23T23:38:44.169Z,3.22
2023-02-23T23:41:13.580Z,2.33
2023-02-23T23:43:46.314Z,1.98
2023-02-23T23:46:18.307Z,1.80
2023-02-23T23:51:11.472Z,1.20
2023-02-23T23:53:37.826Z,2.53
2023-02-23T23:56:05.592Z,1.90
2023-02-23T23:58:32.246Z,1.95
